Date,TemperatureHighF,TemperatureAvgF,TemperatureLowF,DewpointHighF,DewpointAvgF,DewpointLowF,HumidityHigh,HumidityAvg,HumidityLow,PressureMaxIn,PressureMinIn,WindSpeedMaxMPH,WindSpeedAvgMPH,GustSpeedMaxMPH,PrecipitationSumIn
2013-1-1,30.7,27.8,19.8,30.2,26.0,14.3,98,93,76,29.91,29.83,19,9,19,0.00
2013-1-2,21.7,16.9,12.9,14.7,7.4,3.0,81,67,48,30.06,29.91,19,8,19,0.00
2013-1-3,28.0,20.1,11.7,12.7,8.6,3.1,78,61,48,30.06,29.97,26,9,26,0.04
2013-1-4,27.1,24.1,22.1,18.0,15.1,10.7,82,69,52,30.06,29.97,30,15,30,0.00
2013-1-5,31.1,25.4,21.6,18.3,15.0,10.7,82,65,50,30.24,30.03,31,9,31,0.00
2013-1-6,34.9,31.9,29.5,31.0,21.2,14.0,98,65,51,30.06,29.91,20,8,20,0.00
2013-1-7,31.5,27.3,20.7,31.0,23.7,15.0,98,86,67,30.30,30.06,22,8,22,0.00
2013-1-8,42.1,31.4,19.2,22.6,17.2,10.9,90,58,37,30.27,30.18,13,6,13,0.04
2013-1-9,43.5,36.0,27.1,41.2,27.4,17.5,98,72,49,30.33,30.12,27,10,27,0.00
2013-1-10,39.4,34.3,28.0,27.3,21.7,15.5,90,61,41,30.48,30.30,20,7,20,0.00
2013-1-11,44.2,37.6,33.8,43.5,30.6,17.5,98,78,46,30.30,29.97,17,8,17,0.39
2013-1-12,58.1,51.1,43.7,57.5,50.4,43.2,98,97,90,30.06,30.00,13,5,13,0.00
2013-1-13,62.4,56.0,48.4,58.4,50.2,47.5,98,82,63,30.00,29.88,17,8,17,0.08
2013-1-14,56.3,38.2,28.6,55.7,32.8,20.4,98,81,56,30.24,29.88,23,8,23,0.08
2013-1-15,31.8,28.2,24.3,27.9,21.4,15.4,98,76,51,30.24,30.00,13,3,13,0.00
2013-1-16,34.5,31.5,28.4,34.0,30.1,23.2,98,95,75,30.00,29.77,20,8,20,0.00
2013-1-17,30.7,28.8,27.7,27.6,25.0,21.6,96,86,71,30.06,29.88,23,9,23,0.00
2013-1-18,28.2,21.7,12.6,26.3,6.9,-2.1,96,55,33,30.30,29.97,30,12,30,0.00
2013-1-19,48.0,40.1,28.0,15.4,10.4,2.4,33,29,27,30.18,29.80,26,12,26,0.16
2013-1-20,42.8,31.8,17.1,23.4,12.6,5.5,65,46,29,29.97,29.71,31,14,31,0.00
2013-1-21,22.3,16.9,6.1,17.3,9.9,1.5,86,74,62,29.94,29.77,25,8,25,0.00
2013-1-22,7.7,3.9,1.6,3.1,-0.6,-2.9,81,81,81,30.06,29.83,26,12,26,0.00
2013-1-23,10.4,4.6,0.3,5.5,0.0,-4.1,81,81,81,30.06,29.91,22,8,22,0.00
2013-1-24,16.5,8.9,1.6,9.1,-3.7,-19.3,81,59,36,30.33,29.88,22,7,22,0.00
2013-1-25,15.3,9.0,1.8,13.6,-11.4,-19.1,93,39,36,30.30,29.88,15,4,15,0.00
2013-1-26,24.1,18.4,14.5,20.9,15.6,12.4,95,89,74,30.27,29.91,21,9,21,0.00
2013-1-27,30.6,21.5,14.7,17.7,11.7,6.7,92,69,41,30.39,30.24,9,4,9,0.04
2013-1-28,48.6,38.6,24.6,48.0,37.3,18.0,98,95,75,30.24,29.94,21,8,21,0.28
2013-1-29,59.0,51.3,46.8,58.3,50.5,46.2,98,97,90,30.03,29.85,20,8,20,0.08
2013-1-30,62.4,53.7,48.2,54.8,51.6,46.2,98,93,68,29.85,29.26,29,10,29,0.98
2013-1-31,50.2,25.6,17.6,49.6,18.9,4.2,98,77,48,29.71,29.20,34,16,34,0.12
2013-2-1,19.0,11.7,6.8,16.1,8.0,3.2,88,85,82,30.12,29.68,26,12,26,0.00
2013-2-2,20.5,13.6,4.6,19.5,9.4,1.1,96,84,60,30.12,29.83,15,7,15,0.00
2013-2-3,24.6,19.9,13.8,22.9,17.3,10.4,98,90,68,29.83,29.68,22,6,22,0.00
2013-2-4,26.8,18.4,11.5,26.3,12.2,4.3,98,78,52,29.91,29.74,23,8,23,0.00
2013-2-5,31.5,28.0,25.3,31.0,27.4,24.9,98,98,91,29.83,29.71,23,5,23,0.00
2013-2-6,28.0,23.5,14.5,25.6,18.9,9.0,98,84,50,30.21,29.83,23,8,23,0.00
2013-2-7,33.8,24.7,14.9,21.4,17.0,11.8,95,74,50,30.21,30.00,22,8,22,0.00
2013-2-8,36.0,29.4,20.7,35.5,28.2,19.9,98,95,78,30.00,29.71,28,11,28,0.00
2013-2-9,27.9,19.7,14.4,20.2,11.9,4.6,98,74,43,30.24,29.91,28,9,28,0.00
2013-2-10,40.5,27.1,12.2,14.2,10.5,5.1,84,53,30,30.24,29.97,17,7,17,0.04
2013-2-11,57.6,42.5,32.0,49.5,28.7,12.7,98,64,25,29.97,29.62,28,10,28,0.04
2013-2-12,36.0,30.8,26.6,22.5,19.6,17.6,79,63,50,29.94,29.83,30,10,30,0.00
2013-2-13,38.1,31.3,26.1,31.3,22.5,15.8,98,72,42,29.85,29.62,12,4,12,0.00
2013-2-14,39.4,32.0,25.0,29.8,24.4,19.1,98,76,46,29.85,29.74,15,7,15,0.16
2013-2-15,39.4,33.0,26.4,31.2,25.0,15.9,98,74,41,29.94,29.83,17,8,17,0.00
2013-2-16,26.8,22.0,13.8,26.3,16.2,5.4,98,80,44,29.91,29.77,15,6,15,0.04
2013-2-17,21.0,13.9,10.8,15.1,6.2,-2.4,88,72,44,30.06,29.74,29,10,29,0.00
2013-2-18,37.4,22.2,7.0,13.8,3.3,-5.8,55,45,30,30.15,29.91,20,8,20,0.04
2013-2-19,39.9,31.6,20.7,39.0,24.5,6.4,98,77,43,29.91,29.59,27,11,27,0.16
2013-2-20,20.7,15.1,12.7,16.5,8.2,-0.7,91,75,47,30.00,29.77,33,16,33,0.00
2013-2-21,23.0,15.5,10.2,14.0,8.0,3.6,87,73,49,30.18,29.97,22,10,22,0.04
2013-2-22,26.4,22.4,13.3,25.9,17.2,6.5,98,81,56,30.15,29.97,23,9,23,0.00
2013-2-23,43.2,33.6,26.2,40.7,32.1,25.8,98,95,72,29.97,29.77,8,2,8,0.04
2013-2-24,34.2,26.8,23.4,33.7,22.3,15.0,98,83,68,30.00,29.77,22,9,22,0.00
2013-2-25,39.7,29.4,20.1,21.2,15.9,11.5,91,60,33,30.09,30.00,14,5,14,0.00
2013-2-26,34.3,31.5,29.3,33.8,22.9,13.4,98,73,50,30.03,29.59,29,8,29,0.04
2013-2-27,38.7,34.7,32.2,38.1,33.8,31.5,98,97,82,29.62,29.53,17,3,17,0.08
2013-2-28,32.2,30.3,28.9,31.7,29.4,26.2,98,96,88,29.68,29.56,17,9,17,0.00
2013-3-1,30.9,27.2,22.5,30.4,26.1,20.7,98,95,88,29.83,29.68,21,9,21,0.00
2013-3-2,23.7,21.4,20.3,21.0,18.0,11.0,98,87,60,29.80,29.77,15,9,15,0.00
2013-3-3,26.4,21.5,17.6,21.3,18.4,13.5,98,88,61,29.83,29.74,21,12,21,0.00
2013-3-4,28.9,21.6,16.3,18.2,13.5,8.8,92,73,45,29.94,29.83,24,12,24,0.00
2013-3-5,43.3,27.9,10.9,18.7,10.4,3.1,84,52,20,29.94,29.65,25,7,25,0.16
2013-3-6,35.6,31.6,28.2,34.1,24.8,18.3,98,78,53,29.97,29.62,29,8,29,0.04
2013-3-7,35.8,31.3,28.6,31.8,25.1,19.8,97,78,60,30.12,29.97,17,9,17,0.04
2013-3-8,39.0,30.2,25.0,26.3,20.6,14.9,96,69,40,30.27,30.09,24,11,24,0.04
2013-3-9,54.0,35.5,21.4,29.3,18.3,11.7,97,57,23,30.27,30.18,9,3,9,0.04
2013-3-10,56.1,45.3,33.8,21.2,16.6,13.0,44,32,25,30.18,30.03,17,10,17,0.00
2013-3-11,49.8,45.6,39.4,47.3,23.9,16.3,98,45,31,30.03,29.77,28,11,28,0.00
2013-3-12,48.2,37.5,31.6,46.9,34.7,22.1,98,90,66,29.88,29.74,24,9,24,0.39
2013-3-13,33.8,28.1,21.6,30.1,22.7,12.8,98,80,52,29.94,29.83,26,11,26,0.08
2013-3-14,31.6,24.2,20.1,20.2,13.5,7.2,92,66,37,30.00,29.94,26,14,26,0.00
2013-3-15,40.5,32.2,22.1,34.0,18.5,8.5,98,57,43,30.00,29.74,22,9,22,0.04
2013-3-16,35.8,33.3,31.3,35.3,32.8,30.8,98,98,98,29.85,29.62,10,1,10,0.24
2013-3-17,31.6,27.7,23.4,31.1,20.2,12.9,98,75,52,30.09,29.83,0,0,0,0.00
2013-3-18,29.7,26.6,24.6,29.2,22.6,14.0,98,86,60,30.09,29.74,34,12,34,0.00
2013-3-19,42.4,32.8,25.0,33.8,22.3,7.2,98,70,29,29.83,29.65,37,9,37,0.20
2013-3-20,34.5,27.0,22.1,22.0,12.7,7.8,87,56,36,29.83,29.71,27,11,27,0.00
2013-3-21,22.6,19.1,13.3,19.1,9.6,-0.6,95,68,40,29.77,29.68,23,10,23,0.00
2013-3-22,27.9,23.5,20.3,20.9,17.0,11.7,98,77,53,29.88,29.74,26,11,26,0.04
2013-3-23,38.5,28.8,23.5,18.2,16.0,13.0,78,60,38,29.94,29.85,22,8,22,0.00
2013-3-24,34.5,28.5,20.8,21.9,15.5,12.7,85,60,43,29.91,29.53,20,7,20,0.00
2013-3-25,34.9,30.4,27.5,31.1,28.1,21.6,98,91,72,29.65,29.44,18,6,18,0.00
2013-3-26,37.6,31.5,27.0,32.8,28.5,20.2,98,90,51,29.94,29.65,25,8,25,0.28
2013-3-27,36.5,31.8,29.5,34.0,28.3,18.7,98,88,52,30.03,29.91,23,10,23,0.00
2013-3-28,35.2,32.4,30.6,33.9,30.6,28.3,98,93,80,30.15,29.97,20,9,20,0.08
2013-3-29,44.2,36.3,30.0,30.7,23.8,15.8,91,64,34,30.15,30.06,18,6,18,0.08
2013-3-30,49.1,37.7,27.3,20.1,15.2,10.9,64,42,24,30.15,30.00,12,4,12,0.00
2013-3-31,43.7,39.7,34.0,43.2,30.0,13.0,98,72,37,30.00,29.68,20,7,20,0.35
2013-4-1,43.3,36.3,26.6,42.6,25.2,3.8,98,69,31,29.88,29.68,25,9,25,0.08
2013-4-2,33.8,26.8,21.9,14.2,6.9,1.7,69,43,31,30.06,29.88,22,10,22,0.00
2013-4-3,34.5,26.4,20.5,23.6,5.8,0.7,87,42,31,30.27,30.03,26,10,26,0.00
2013-4-4,43.9,31.0,16.7,10.3,5.3,1.1,58,36,20,30.27,29.91,17,6,17,0.00
2013-4-5,51.8,39.6,29.8,20.1,13.9,7.2,52,35,26,30.03,29.85,26,10,26,0.00
2013-4-6,51.1,36.6,21.9,18.4,12.8,7.3,76,42,19,30.18,30.03,18,7,18,0.00
2013-4-7,64.2,53.1,40.1,41.9,24.5,11.1,64,33,26,30.06,29.88,24,10,24,0.00
2013-4-8,69.6,59.2,46.2,51.7,38.1,29.8,95,52,24,30.03,29.91,16,6,16,0.00
2013-4-9,75.4,65.8,57.6,49.3,41.4,36.1,73,43,26,30.09,29.94,17,9,17,0.00
2013-4-10,76.5,66.0,56.7,66.0,51.8,40.6,100,63,39,29.97,29.83,31,9,31,0.55
2013-4-11,72.5,60.6,50.9,63.1,54.6,50.9,100,84,51,29.91,29.71,26,6,26,0.24
2013-4-12,64.8,53.1,40.6,62.2,47.8,31.0,100,84,44,29.80,29.59,25,11,25,0.51
2013-4-13,51.4,41.5,35.2,34.7,30.3,27.9,86,66,43,29.91,29.80,25,10,25,0.00
2013-4-14,57.6,45.4,31.1,33.3,27.8,21.3,85,52,35,30.09,29.91,18,7,18,0.00
2013-4-15,61.0,54.4,50.0,50.3,41.4,32.2,91,62,47,30.15,30.03,24,11,24,0.00
2013-4-16,75.2,61.7,52.5,60.3,53.0,49.4,100,77,41,30.18,30.03,20,9,20,0.20
2013-4-17,64.8,56.6,49.5,60.1,54.5,49.5,100,93,66,30.21,30.12,15,1,15,0.36
2013-4-18,70.2,61.2,55.9,62.0,56.6,49.7,100,86,65,30.15,29.88,26,12,26,0.00
2013-4-19,69.1,56.1,39.4,61.9,50.9,27.4,100,83,62,29.88,29.56,25,13,25,0.12
2013-4-20,44.2,36.6,28.4,33.1,24.3,17.9,100,63,40,30.30,29.80,30,12,30,0.00
2013-4-21,49.8,36.4,23.7,23.1,18.7,14.2,83,51,33,30.48,30.30,13,5,13,0.00
2013-4-22,54.3,43.3,34.9,28.6,23.1,18.8,63,46,32,30.42,30.27,20,10,20,0.00
2013-4-23,64.9,47.5,31.6,38.2,32.1,27.0,92,59,32,30.27,30.00,17,8,17,0.00
2013-4-24,70.5,51.8,36.0,58.1,43.5,35.4,100,77,42,30.06,29.74,31,10,31,0.24
2013-4-25,55.6,42.3,32.7,37.6,28.9,22.6,100,64,32,30.27,30.06,17,8,17,0.00
2013-4-26,57.2,44.7,32.9,37.5,28.1,20.2,100,57,29,30.39,30.27,15,4,15,0.00
2013-4-27,67.1,52.7,37.9,36.1,29.3,21.0,59,42,29,30.36,30.21,16,7,16,0.00
2013-4-28,54.5,48.5,44.1,49.0,42.4,34.2,100,81,53,30.21,30.00,25,11,25,0.16
2013-4-29,54.9,50.8,46.8,54.6,50.6,46.8,100,100,94,30.06,29.97,17,8,17,0.04
2013-4-30,61.5,54.1,50.7,54.3,51.6,46.9,100,92,62,30.21,30.06,16,9,16,0.00
2013-5-1,69.3,57.2,44.6,52.7,37.1,27.0,100,53,26,30.33,30.21,17,9,17,0.00
2013-5-2,70.7,56.8,41.7,41.5,34.8,27.6,92,47,26,30.36,30.24,22,10,22,0.00
2013-5-3,65.8,55.6,46.0,42.5,36.9,28.2,77,51,33,30.30,30.21,23,11,23,0.00
2013-5-4,65.8,53.5,42.3,41.0,38.3,35.8,90,59,35,30.24,30.12,20,11,20,0.00
2013-5-5,67.8,54.2,41.5,39.0,32.9,27.1,86,49,26,30.15,30.06,22,10,22,0.00
2013-5-6,61.2,52.4,41.7,54.9,45.4,33.2,100,78,55,30.09,30.03,21,10,21,0.00
2013-5-7,62.8,56.3,53.4,57.0,54.4,47.5,100,94,61,30.06,29.97,18,8,18,0.08
2013-5-8,66.7,56.6,48.7,58.6,51.3,42.0,100,85,42,30.00,29.91,15,5,15,1.77
2013-5-9,66.0,56.6,50.7,61.3,53.4,48.0,100,90,55,30.03,29.88,16,5,16,0.04
2013-5-10,72.0,59.7,52.5,66.3,56.9,52.1,100,92,56,30.03,29.85,17,6,17,0.47
2013-5-11,58.5,54.5,48.9,58.5,54.5,48.9,100,100,100,29.85,29.80,17,7,17,0.39
2013-5-12,48.9,42.9,35.6,48.9,31.4,21.1,100,68,39,29.97,29.77,29,11,29,0.08
2013-5-13,46.6,38.1,31.1,34.0,24.6,18.8,100,61,38,30.09,29.94,20,9,20,0.00
2013-5-14,53.8,42.3,29.5,32.7,26.2,21.6,81,55,36,30.12,29.94,13,5,13,0.00
2013-5-15,81.3,63.3,44.6,57.8,47.9,31.2,100,60,39,29.94,29.77,32,9,32,0.04
2013-5-16,74.3,66.0,58.5,63.1,52.9,39.3,100,67,30,30.00,29.83,18,7,18,0.04
2013-5-17,75.6,64.3,55.4,63.3,52.0,42.4,100,70,32,30.15,30.00,13,4,13,0.00
2013-5-18,71.4,60.9,52.3,59.5,51.0,40.2,100,71,53,30.18,30.12,17,8,17,0.00
2013-5-19,63.5,58.7,54.9,63.3,58.7,54.9,100,100,99,30.15,30.06,13,6,13,0.00
2013-5-20,80.6,68.4,59.2,68.4,62.3,56.9,100,83,47,30.09,29.97,13,4,13,0.00
2013-5-21,83.7,72.4,62.8,69.6,62.2,54.9,100,75,38,30.03,29.88,13,4,13,0.00
2013-5-22,82.2,69.3,60.6,72.2,60.8,54.2,100,77,40,29.94,29.85,26,5,26,0.75
2013-5-23,73.4,62.4,56.7,66.9,59.1,50.9,100,91,47,29.88,29.80,15,4,15,0.43
2013-5-24,56.5,41.9,36.7,56.5,38.9,28.3,100,90,68,30.15,29.83,24,11,24,0.00
2013-5-25,56.5,43.8,35.1,37.8,32.7,27.7,100,69,36,30.18,30.12,27,10,27,0.00
2013-5-26,61.9,48.6,35.8,35.0,31.8,28.8,86,55,33,30.21,30.15,22,8,22,0.00
2013-5-27,61.3,50.8,39.4,50.7,38.1,30.8,100,65,35,30.24,30.12,9,2,9,0.00
2013-5-28,69.3,58.3,49.6,68.2,57.6,49.6,100,98,81,30.15,30.06,13,4,13,0.87
2013-5-29,80.8,70.3,60.3,63.0,57.1,49.5,100,66,36,30.12,30.06,17,6,17,0.00
2013-5-30,83.8,71.1,61.3,64.4,60.0,54.2,98,71,38,30.24,30.12,13,4,13,0.00
2013-5-31,85.3,72.9,62.6,66.1,60.0,51.6,100,69,32,30.18,30.06,10,4,10,0.00
2013-6-1,83.5,72.1,62.1,65.2,60.8,54.5,100,71,39,30.06,29.91,14,5,14,0.00
2013-6-2,75.9,69.1,65.1,67.7,59.9,50.5,100,74,43,29.91,29.85,20,6,20,0.00
2013-6-3,64.9,60.0,49.8,63.0,56.5,39.6,100,89,67,30.03,29.88,14,4,14,0.04
2013-6-4,67.6,54.9,41.5,44.3,40.7,36.3,97,62,37,30.15,30.03,13,4,13,0.00
2013-6-5,72.5,61.3,50.4,56.0,47.2,38.8,80,61,42,30.15,30.00,15,6,15,0.00
2013-6-6,62.2,58.9,56.5,60.3,57.8,55.8,100,96,80,30.03,29.85,19,7,19,0.98
2013-6-7,66.2,62.2,59.2,66.2,62.2,59.2,100,100,100,29.85,29.77,13,3,13,0.16
2013-6-8,79.7,57.0,52.5,62.2,55.8,52.5,100,96,70,30.15,29.83,15,5,15,0.00
2013-6-9,76.1,64.9,53.8,67.1,59.7,53.6,100,86,56,30.21,30.12,13,4,13,0.00
2013-6-10,72.7,65.7,61.5,71.2,65.3,61.5,100,99,87,30.12,29.85,15,6,15,0.39
2013-6-11,70.0,63.9,61.7,67.5,62.9,61.1,100,97,76,29.94,29.83,17,7,17,0.08
2013-6-12,76.3,67.5,61.7,71.1,64.5,57.0,100,91,54,29.94,29.85,17,4,17,0.04
2013-6-13,69.1,63.8,56.3,69.1,63.2,55.2,100,98,88,29.85,29.59,23,10,23,0.63
2013-6-14,68.0,59.7,53.2,57.9,53.4,46.0,100,82,49,30.06,29.77,18,7,18,0.00
2013-6-15,71.8,61.5,53.8,60.5,47.6,37.8,100,66,31,30.12,30.03,16,5,16,0.00
2013-6-16,69.8,63.4,58.3,67.8,60.7,45.3,100,92,58,30.06,29.94,23,6,23,0.16
2013-6-17,76.8,68.5,64.4,69.8,60.8,49.4,100,80,40,30.00,29.94,13,5,13,0.12
2013-6-18,72.3,66.2,61.3,67.6,62.9,55.5,100,90,63,29.97,29.88,10,2,10,0.00
2013-6-19,72.5,61.3,50.9,61.2,50.0,41.3,100,71,34,30.18,29.97,9,3,9,0.00
2013-6-20,78.8,65.7,54.9,62.8,53.7,46.8,100,69,35,30.24,30.15,10,4,10,0.00
2013-6-21,80.2,69.1,59.2,69.4,58.2,46.0,100,74,32,30.30,30.21,12,4,12,0.00
2013-6-22,82.2,70.9,61.3,66.6,61.2,54.4,100,76,40,30.27,30.15,10,4,10,0.00
2013-6-23,84.9,73.1,63.9,68.7,62.7,55.3,100,74,39,30.21,30.12,15,4,15,0.00
2013-6-24,83.7,73.7,66.0,67.5,62.5,55.7,100,71,40,30.18,30.06,13,4,13,0.00
2013-6-25,83.3,72.3,62.1,68.4,63.0,56.9,100,77,43,30.09,29.94,34,6,34,0.24
2013-6-26,76.8,68.4,62.6,72.0,65.5,62.2,100,92,65,30.03,29.88,17,4,17,0.71
2013-6-27,70.3,67.1,64.4,70.3,67.1,64.4,100,100,100,29.91,29.68,14,4,14,1.46
2013-6-28,71.8,65.1,59.0,71.1,64.0,58.4,100,96,69,29.68,29.59,16,4,16,0.24
2013-6-29,74.3,65.5,59.5,67.8,61.6,55.9,100,89,57,29.77,29.59,13,3,13,0.00
2013-6-30,77.2,66.6,60.3,69.9,63.9,57.6,100,92,58,29.91,29.77,17,2,17,0.20
2013-7-1,73.8,67.6,65.1,73.3,67.5,65.1,100,100,91,30.00,29.88,8,3,8,0.35
2013-7-2,76.1,70.1,65.5,75.6,69.4,65.5,100,98,83,30.15,30.00,10,3,10,0.04
2013-7-3,80.4,70.7,66.2,72.0,67.4,59.1,100,91,53,30.24,30.15,10,4,10,0.08
2013-7-4,81.7,71.9,66.0,73.6,68.0,60.0,100,89,51,30.27,30.18,9,4,9,0.00
2013-7-5,81.9,72.1,65.8,72.3,67.1,60.2,100,86,50,30.24,30.15,17,4,17,0.08
2013-7-6,84.0,73.5,66.2,75.4,68.4,61.0,100,87,47,30.24,30.12,10,3,10,0.00
2013-7-7,79.0,70.3,65.5,71.6,67.4,58.6,100,92,51,30.15,30.06,12,3,12,0.12
2013-7-8,76.1,69.5,65.5,68.7,65.1,56.9,100,87,56,30.15,30.09,13,3,13,0.00
2013-7-9,76.8,70.3,66.7,73.6,69.7,66.7,100,98,84,30.15,30.06,10,4,10,0.04
2013-7-10,80.4,70.1,64.4,73.2,68.0,60.5,100,94,68,30.06,29.91,24,4,24,0.63
2013-7-11,72.9,65.9,59.9,70.0,61.8,54.4,100,88,54,30.03,29.91,12,4,12,0.00
2013-7-12,70.9,64.4,59.0,64.6,61.8,57.5,100,92,77,30.15,30.00,8,3,8,0.04
2013-7-13,76.8,68.2,62.6,69.6,65.3,60.9,100,92,61,30.30,30.12,10,4,10,0.00
2013-7-14,82.6,73.8,68.0,72.2,65.2,58.5,100,78,46,30.36,30.30,15,6,15,0.00
2013-7-15,85.8,75.2,67.5,68.6,65.2,58.4,100,75,40,30.39,30.30,12,4,12,0.00
2013-7-16,86.2,77.9,68.9,77.6,66.7,57.9,100,72,40,30.36,30.30,10,3,10,0.00
2013-7-17,86.7,79.9,72.1,72.7,66.8,62.3,100,66,45,30.30,30.21,13,3,13,0.00
2013-7-18,88.0,78.0,70.9,78.6,70.6,63.2,100,81,47,30.24,30.09,9,1,9,0.00
2013-7-19,85.8,78.0,71.8,77.3,69.9,63.0,100,79,49,30.12,29.97,17,5,17,0.00
2013-7-20,79.0,79.0,79.0,68.8,68.8,68.8,71,71,71,29.97,29.97,4,4,4,0.00
2013-7-21,82.4,76.7,67.8,68.8,66.8,56.8,100,73,43,30.03,29.97,9,3,9,0.00
2013-7-22,75.0,69.8,65.5,74.5,69.0,65.5,100,98,78,30.00,29.83,9,2,9,0.39
2013-7-23,76.3,69.0,63.5,72.3,65.4,58.6,100,90,62,29.83,29.77,17,5,17,0.08
2013-7-24,69.1,62.6,54.9,63.9,55.3,46.5,100,80,48,30.00,29.77,15,5,15,0.00
2013-7-25,71.1,60.0,49.8,56.0,50.8,44.0,100,75,42,30.12,30.00,10,3,10,0.00
2013-7-26,77.0,63.9,52.3,63.9,51.6,42.9,100,70,33,30.12,30.06,8,2,8,0.00
2013-7-27,71.1,64.7,59.4,70.0,63.1,52.1,100,95,76,30.06,29.91,10,5,10,0.08
2013-7-28,73.8,66.0,56.3,65.8,56.6,44.5,100,76,36,30.06,29.88,13,4,13,0.08
2013-7-29,68.7,60.3,53.4,56.6,51.1,44.4,100,75,45,30.21,30.06,13,4,13,0.00
2013-7-30,72.0,61.8,54.1,59.4,52.7,46.9,100,75,43,30.24,30.18,10,2,10,0.00
2013-7-31,77.0,65.3,56.8,64.8,56.9,45.6,100,78,35,30.18,30.00,10,3,10,0.00
2013-8-1,76.1,66.7,61.3,71.2,62.1,50.2,100,87,43,30.00,29.91,14,5,14,0.00
2013-8-2,72.9,65.2,59.4,64.2,54.5,45.2,100,73,39,30.03,29.94,15,5,15,0.00
2013-8-3,71.8,64.8,56.7,68.9,61.9,54.8,100,91,58,30.00,29.97,24,6,24,0.08
2013-8-4,68.9,59.8,53.2,61.3,51.2,42.9,100,76,40,30.09,30.00,17,6,17,0.00
2013-8-5,69.6,59.9,52.0,61.8,49.7,42.4,100,73,39,30.15,30.06,12,3,12,0.00
2013-8-6,75.4,64.3,55.0,63.7,53.2,49.2,100,70,44,30.06,30.03,13,5,13,0.00
2013-8-7,76.6,67.6,63.5,69.5,65.1,62.5,100,93,64,30.06,30.00,15,6,15,0.55
2013-8-8,77.7,69.2,63.5,75.1,68.3,63.5,100,97,73,30.06,30.00,13,4,13,0.35
2013-8-9,74.7,70.3,67.1,74.7,70.3,66.2,100,100,100,30.06,29.94,13,3,13,0.24
2013-8-10,75.4,66.7,59.0,68.0,60.9,54.0,100,84,51,30.15,30.06,13,3,13,0.00
2013-8-11,77.9,68.3,61.2,71.3,62.6,57.0,100,84,50,30.15,30.06,12,2,12,0.00
2013-8-12,77.4,68.9,62.4,71.8,62.6,54.6,100,83,46,30.09,29.97,9,2,9,0.00
2013-8-13,71.8,65.1,52.9,70.8,60.1,43.8,100,86,53,29.97,29.85,15,6,15,0.24
2013-8-14,63.0,54.4,47.8,54.1,47.6,42.7,100,80,52,30.12,29.94,16,7,16,0.00
2013-8-15,70.2,56.9,47.7,60.4,47.2,39.1,100,75,35,30.21,30.12,6,2,6,0.00
2013-8-16,73.2,60.2,50.5,56.9,49.5,43.6,98,70,42,30.21,30.15,9,3,9,0.00
2013-8-17,71.2,62.0,54.0,60.5,51.2,44.2,100,71,41,30.27,30.21,15,5,15,0.00
2013-8-18,66.4,61.5,58.3,61.1,56.1,49.5,100,83,57,30.27,30.18,10,4,10,0.04
2013-8-19,73.8,64.8,59.5,71.4,63.0,59.3,100,95,61,30.18,30.12,8,2,8,0.16
2013-8-20,77.0,66.7,59.7,70.5,59.1,50.3,100,81,41,30.24,30.15,10,2,10,0.00
2013-8-21,79.9,68.9,59.5,68.5,60.8,52.1,100,79,39,30.24,30.12,8,2,8,0.00
2013-8-22,77.7,68.6,63.9,69.4,64.5,54.2,100,88,50,30.15,30.03,23,5,23,0.00
2013-8-23,75.6,67.4,61.7,70.9,60.8,47.3,100,83,40,30.18,30.03,8,1,8,0.00
2013-8-24,76.1,63.4,55.8,56.3,50.8,44.3,94,66,39,30.36,30.18,8,4,8,0.00
2013-8-25,77.7,65.2,56.5,59.3,52.3,44.9,98,67,32,30.39,30.27,10,4,10,0.00
2013-8-26,79.2,69.1,61.0,60.8,55.5,51.5,83,64,41,30.30,30.06,15,6,15,0.00
2013-8-27,78.3,71.2,68.5,73.1,67.9,60.8,100,90,57,30.06,30.00,13,6,13,0.00
2013-8-28,74.1,69.3,67.3,74.1,69.3,67.3,100,100,100,30.03,29.88,9,2,9,1.18
2013-8-29,81.0,71.2,67.3,75.4,66.4,57.1,100,87,46,30.09,29.94,8,1,8,0.00
2013-8-30,81.9,71.7,65.1,71.8,64.0,55.5,100,80,42,30.09,29.91,10,3,10,0.00
2013-8-31,79.9,71.8,66.9,72.7,68.0,59.5,100,89,52,29.94,29.88,10,4,10,0.00
2013-9-1,76.1,70.0,65.5,74.2,69.6,65.5,100,99,86,29.94,29.85,13,3,13,0.12
2013-9-2,80.1,70.6,64.2,72.7,64.0,54.9,100,83,47,29.88,29.83,15,4,15,0.31
2013-9-3,67.1,62.1,56.5,64.9,54.3,43.0,100,78,43,30.03,29.85,17,6,17,0.00
2013-9-4,71.8,61.8,54.3,59.6,54.2,45.2,100,78,47,30.12,30.03,13,5,13,0.00
2013-9-5,69.8,61.2,50.7,59.8,52.6,42.8,94,74,53,30.21,30.06,20,6,20,0.00
2013-9-6,70.3,55.5,43.9,52.4,45.1,39.7,92,69,53,30.27,30.15,7,3,7,0.00
2013-9-7,73.0,60.8,50.2,54.4,49.3,42.0,85,67,52,30.15,30.00,10,4,10,0.00
2013-9-8,73.2,64.3,57.9,64.4,59.3,51.5,97,84,65,30.09,29.94,13,4,13,0.08
2013-9-9,69.1,60.4,51.1,57.7,50.9,45.8,91,72,48,30.18,30.09,10,5,10,0.00
2013-9-10,84.9,73.3,62.4,69.6,63.4,57.5,100,74,44,30.21,30.12,13,5,13,0.00
2013-9-11,83.3,73.4,68.9,75.5,69.6,53.9,100,90,56,30.21,30.09,10,4,10,0.39
2013-9-12,77.4,68.6,59.7,74.5,68.0,59.7,100,98,81,30.09,29.83,22,5,22,0.35
2013-9-13,60.6,55.5,46.9,60.6,54.9,46.7,100,98,88,30.00,29.83,15,6,15,0.04
2013-9-14,59.7,49.8,44.4,51.4,46.6,43.5,100,90,74,30.15,30.00,12,4,12,0.00
2013-9-15,68.0,55.3,44.6,59.0,51.2,43.5,100,87,73,30.18,30.09,8,3,8,0.00
2013-9-16,64.2,56.7,50.7,59.0,54.1,49.1,100,91,76,30.27,30.06,10,4,10,0.20
2013-9-17,63.3,50.4,40.3,52.4,45.8,39.9,100,85,68,30.39,30.27,10,5,10,0.00
2013-9-18,67.8,53.3,43.2,57.7,47.5,39.3,91,81,67,30.30,30.15,10,5,10,0.00
2013-9-19,69.8,59.0,50.2,63.7,56.6,47.7,100,92,77,30.18,30.09,10,3,10,0.00
2013-9-20,76.1,64.2,56.5,67.4,61.5,56.5,100,92,72,30.09,29.94,10,4,10,0.00
2013-9-21,66.6,61.6,56.8,66.6,61.5,56.8,100,100,96,29.94,29.74,15,5,15,0.67
2013-9-22,59.0,53.3,49.1,57.0,51.4,46.5,100,94,75,30.00,29.80,15,5,15,0.04
2013-9-23,56.3,47.9,42.3,48.7,44.0,41.2,96,87,75,30.12,30.00,12,4,12,0.00
2013-9-24,68.4,50.9,39.7,57.0,46.9,39.7,100,87,67,30.09,29.97,7,1,7,0.00
2013-9-25,68.0,54.6,46.0,57.5,50.1,42.6,96,86,67,30.00,29.94,9,2,9,0.00
2013-9-26,71.2,57.5,47.3,59.7,51.3,45.6,99,81,67,30.09,29.97,8,2,8,0.00
2013-9-27,69.6,57.4,51.1,60.0,53.6,49.2,100,88,70,30.21,30.09,9,4,9,0.00
2013-9-28,63.1,54.5,49.8,58.3,51.7,46.8,100,91,74,30.30,30.18,13,5,13,0.00
2013-9-29,67.8,55.6,48.7,58.5,51.8,48.7,100,88,72,30.18,30.06,10,5,10,0.00
2013-9-30,69.3,58.5,50.4,60.1,55.0,29.9,100,89,72,30.09,30.00,9,3,9,0.00
2013-10-1,61.5,59.2,57.0,61.2,59.0,57.0,100,99,98,30.09,30.03,7,1,7,0.00
2013-10-2,59.5,59.5,59.5,59.3,59.3,59.3,99,99,99,30.09,30.09,0,0,0,0.00
2013-10-3,59.5,59.5,59.5,59.3,59.3,59.3,99,99,99,30.09,30.09,0,0,0,0.00
2013-10-4,76.5,66.1,59.5,69.8,62.8,59.3,100,90,71,30.15,30.09,13,3,13,0.04
2013-10-5,78.1,68.7,63.1,71.1,65.4,63.1,100,90,70,30.15,30.06,10,2,10,0.00
2013-10-6,81.5,70.6,64.8,69.0,64.4,59.5,100,82,64,30.06,29.88,20,6,20,0.00
2013-10-7,67.1,55.4,45.9,61.7,51.3,41.6,100,86,73,30.09,29.77,19,9,19,0.55
2013-10-8,63.5,50.7,41.9,53.4,45.6,41.1,100,84,66,30.30,30.09,13,4,13,0.00
2013-10-9,60.4,50.4,44.1,49.4,43.6,38.9,92,78,67,30.33,30.24,16,6,16,0.00
2013-10-10,57.9,49.8,43.3,49.5,44.9,38.9,100,84,69,30.24,30.09,9,4,9,0.04
2013-10-11,57.9,53.0,49.1,57.9,53.0,49.1,100,100,100,30.09,30.03,12,5,12,1.38
2013-10-12,68.9,60.2,54.7,61.9,56.9,50.1,100,89,73,30.21,30.06,13,6,13,0.00
2013-10-13,59.2,56.3,54.3,58.6,55.4,50.3,100,97,84,30.30,30.18,13,6,13,0.04
2013-10-14,61.7,56.7,54.1,61.4,56.5,54.1,100,99,95,30.30,30.24,12,4,12,0.04
2013-10-15,65.1,57.9,51.1,63.0,54.6,50.3,100,90,74,30.24,30.06,12,5,12,0.00
2013-10-16,61.9,57.6,52.2,61.6,54.2,48.1,100,88,74,30.06,29.91,13,5,13,0.04
2013-10-17,60.6,54.9,47.7,60.6,54.6,47.7,100,99,90,29.91,29.68,25,6,25,0.24
2013-10-18,57.2,48.1,42.1,47.7,43.1,38.0,100,84,67,30.00,29.85,22,9,22,0.00
2013-10-19,52.2,45.0,39.2,46.5,41.3,36.9,100,87,77,29.97,29.77,26,6,26,0.00
2013-10-20,54.0,43.5,37.4,43.5,38.5,35.0,99,83,68,30.03,29.88,20,8,20,0.04
2013-10-21,63.5,49.3,37.2,51.9,41.2,33.4,87,74,66,30.06,29.88,13,6,13,0.00
2013-10-22,53.2,44.7,36.0,45.6,37.8,28.8,100,78,68,29.88,29.83,18,7,18,0.04
2013-10-23,38.5,36.2,34.2,38.5,33.8,29.6,100,91,78,29.85,29.71,15,4,15,0.12
2013-10-24,39.0,34.6,31.8,35.6,31.6,28.1,100,89,71,30.03,29.85,22,9,22,0.04
2013-10-25,42.1,34.4,31.8,37.7,32.0,28.0,100,91,73,30.21,30.03,19,8,19,0.00
2013-10-26,48.7,37.9,29.3,39.0,31.4,26.6,90,78,69,30.18,29.85,23,9,23,0.00
2013-10-27,46.8,38.7,32.4,37.1,32.4,27.7,91,78,69,30.06,29.91,17,8,17,0.00
2013-10-28,56.8,42.2,32.0,46.0,34.9,27.5,88,76,67,30.24,30.06,10,4,10,0.00
2013-10-29,57.0,44.3,33.4,46.2,37.2,30.8,95,77,67,30.33,30.21,13,4,13,0.00
2013-10-30,64.0,51.1,39.9,53.3,44.7,34.2,93,79,68,30.24,30.12,10,4,10,0.00
2013-10-31,63.1,58.6,54.5,61.5,56.5,52.5,100,93,82,30.12,29.65,20,8,20,0.31
2013-11-1,62.4,55.3,43.9,58.1,49.4,39.1,100,81,67,29.71,29.44,31,11,31,0.12
2013-11-2,50.2,45.1,41.5,42.9,41.3,38.9,100,87,74,29.88,29.68,18,8,18,0.04
2013-11-3,44.8,37.1,27.7,41.7,32.9,22.3,100,86,70,30.36,29.88,21,8,21,0.04
2013-11-4,39.0,30.4,23.4,30.2,23.3,17.2,81,75,71,30.48,30.36,17,8,17,0.00
2013-11-5,46.9,38.1,30.6,37.1,30.0,23.1,82,72,69,30.48,30.33,14,6,14,0.00
2013-11-6,67.5,52.3,36.0,55.3,45.8,32.2,100,80,65,30.33,29.94,17,8,17,0.00
2013-11-7,58.8,43.8,33.1,54.1,40.6,26.4,100,89,72,30.03,29.85,25,10,25,0.28
2013-11-8,37.6,33.4,28.8,30.0,27.3,23.2,89,78,71,30.21,29.97,24,10,24,0.00
2013-11-9,50.7,39.9,26.1,40.7,32.4,21.8,85,75,69,30.21,29.91,20,8,20,0.00
2013-11-10,48.6,40.6,34.2,38.8,32.6,28.1,79,73,69,30.15,29.88,32,14,32,0.00
2013-11-11,48.0,38.5,30.2,38.3,32.2,26.6,100,78,69,30.18,29.97,21,9,21,0.00
2013-11-12,37.2,26.7,21.0,37.2,23.7,17.7,100,89,73,30.30,29.97,22,11,22,0.08
2013-11-13,31.5,25.5,21.6,23.9,20.9,18.7,96,83,73,30.36,30.24,22,10,22,0.04
2013-11-14,45.9,34.4,25.7,36.6,26.3,18.6,76,72,69,30.24,30.12,26,9,26,0.04
2013-11-15,50.5,43.7,34.0,40.7,34.9,25.2,81,71,69,30.18,30.09,17,7,17,0.00
2013-11-16,56.7,46.7,37.2,48.6,42.2,35.8,100,85,70,30.21,30.09,14,6,14,0.00
2013-11-17,57.2,53.2,47.7,57.2,53.1,47.4,100,100,96,30.09,29.59,20,10,20,0.43
2013-11-18,53.8,44.9,33.8,53.2,36.6,25.7,98,73,69,29.94,29.65,32,14,32,0.04
2013-11-19,33.8,30.2,23.4,26.8,23.7,18.6,84,76,72,30.30,29.94,25,10,25,0.00
2013-11-20,38.8,30.2,22.6,30.2,23.0,18.0,83,75,69,30.39,30.27,19,9,19,0.00
2013-11-21,44.8,35.1,25.3,37.6,29.6,19.5,90,80,70,30.39,30.24,15,6,15,0.00
2013-11-22,51.3,46.5,34.5,51.3,45.9,34.2,100,98,83,30.24,30.00,26,8,26,0.20
2013-11-23,34.3,26.3,14.0,34.3,22.3,8.0,100,85,73,30.12,29.97,32,13,32,0.00
2013-11-24,19.4,14.0,10.9,15.2,9.0,5.4,91,80,75,30.33,30.12,30,12,30,0.00
2013-11-25,33.4,21.7,10.2,24.7,14.5,4.7,78,74,70,30.33,30.12,20,7,20,0.04
2013-11-26,34.0,31.3,27.7,34.0,30.4,22.5,100,96,75,30.15,29.68,17,3,17,0.79
2013-11-27,34.0,25.7,18.7,34.0,24.9,16.8,100,96,91,29.91,29.62,0,0,0,0.00
2013-11-28,23.5,19.3,14.5,20.6,16.9,12.6,96,90,81,30.30,29.91,0,0,0,0.00
2013-11-29,27.5,22.4,18.0,23.4,20.1,16.5,95,91,82,30.53,30.27,0,0,0,0.00
2013-11-30,28.2,23.0,18.5,24.7,21.0,17.3,96,92,84,30.50,30.18,0,0,0,0.00
2013-12-1,41.4,32.3,21.9,36.8,29.3,20.5,99,89,76,30.18,29.91,10,2,10,0.08
2013-12-2,45.7,38.1,32.7,38.2,33.6,29.5,90,84,72,29.91,29.80,12,4,12,0.52
2013-12-3,49.1,39.9,35.2,45.5,37.5,33.1,100,91,74,29.91,29.80,10,3,10,0.00
2013-12-4,56.3,43.7,35.4,48.3,40.5,34.6,100,89,72,30.00,29.91,15,6,15,0.00
2013-12-5,61.3,53.7,43.5,59.5,52.8,43.5,100,97,78,29.94,29.88,17,6,17,0.67
2013-12-6,43.5,33.6,28.6,43.5,33.6,28.6,100,100,100,30.12,29.91,19,3,19,0.28
2013-12-7,28.6,23.6,16.2,28.6,23.0,15.0,100,97,90,30.42,30.12,0,0,0,0.00
2013-12-8,16.5,15.6,11.3,14.8,13.8,10.0,95,92,91,30.42,30.36,0,0,0,0.00
2013-12-9,35.4,22.7,16.5,35.4,20.9,14.4,100,93,87,30.36,29.91,0,0,0,0.04
2013-12-10,27.9,22.7,18.3,26.1,19.2,11.7,96,86,72,30.06,29.88,32,3,32,0.00
2013-12-11,24.4,19.3,14.7,18.6,13.3,9.3,93,77,72,30.18,30.06,26,10,26,0.00
2013-12-12,17.8,14.0,9.5,15.6,9.4,6.2,91,82,73,30.24,30.06,23,10,23,0.00
2013-12-13,28.4,20.8,14.4,20.2,13.5,7.6,75,73,71,30.15,30.03,22,8,22,0.00
2013-12-14,32.9,28.3,24.4,32.9,25.5,17.3,100,90,73,30.15,29.75,23,9,23,0.00
2013-12-15,35.6,27.4,16.2,35.6,26.5,10.2,100,96,77,29.96,29.66,26,12,26,0.00
2013-12-16,24.1,16.7,11.7,22.9,12.6,7.2,95,84,76,30.11,29.96,27,7,27,0.00
2013-12-17,33.3,28.7,23.7,33.3,28.3,22.5,100,98,95,30.05,29.93,18,6,18,0.00
2013-12-18,26.1,23.7,22.1,24.6,21.2,19.2,99,90,76,30.17,29.99,26,10,26,0.00
2013-12-19,46.6,38.7,22.3,37.0,30.5,17.3,82,72,69,30.14,30.08,26,9,26,0.12
2013-12-20,53.1,47.1,38.1,52.1,40.1,29.5,100,77,69,30.11,29.99,19,9,19,0.04
2013-12-21,60.4,55.3,50.7,60.0,54.4,48.4,100,97,89,30.02,29.87,17,8,17,0.83
2013-12-22,63.0,57.9,53.2,59.2,53.8,49.0,100,87,75,30.05,29.78,28,11,28,0.20
2013-12-23,53.2,38.2,25.9,49.5,36.5,21.0,100,94,80,30.25,30.02,25,10,25,0.04
2013-12-24,25.9,19.0,8.4,22.1,14.0,1.8,92,80,73,30.40,30.19,26,10,26,0.00
2013-12-25,22.1,15.4,7.5,15.4,8.7,1.0,85,74,72,30.43,30.23,13,6,13,0.00
2013-12-26,29.7,25.1,20.5,26.7,19.8,14.2,96,80,72,30.31,30.14,24,9,24,0.00
2013-12-27,34.7,28.6,17.6,26.4,21.2,11.4,82,74,70,30.34,30.28,20,8,20,0.04
2013-12-28,48.0,39.4,32.9,38.3,30.7,25.0,73,71,69,30.28,30.14,20,8,20,0.00
2013-12-29,42.6,38.8,36.7,40.3,36.0,28.7,100,90,71,30.14,29.69,24,8,24,0.83
2013-12-30,37.6,24.7,17.4,37.6,23.6,15.0,100,95,87,30.14,29.84,26,2,26,0.00
2013-12-31,22.1,19.6,16.9,21.4,17.5,14.4,97,91,85,30.25,30.05,0,0,0,0.00
2014-1-1,34.5,26.8,20.3,26.4,21.4,16.4,88,80,72,30.28,30.08,10,2,10,0.04
2014-1-2,26.4,22.7,9.3,23.6,20.7,7.0,96,92,84,30.08,29.69,17,5,17,0.00